Time;durP1;ratioP1;P1;durP2;ratioP2;P2;SDS_P1;SDS_P2;PMS_P1;PMS_P2;Temp;Humidity;BMP_temperature;BMP_pressure;BME280_temperature;BME280_humidity;BME280_pressure;Samples;Min_cycle;Max_cycle;Signal;HPM_P1;HPM_P2
2021/09/07 00:01:39;;;;;;;957.10;892.38;;;;;;;9.65;71.13;94396.16;5088432;28;20107;-41
2021/09/07 00:04:05;;;;;;;940.00;876.92;;;;;;;9.66;71.33;94392.13;5092298;28;20032;-41
2021/09/07 00:06:30;;;;;;;972.75;905.53;;;;;;;9.66;70.76;94392.13;5092311;28;20023;-42
2021/09/07 00:08:56;;;;;;;992.53;923.40;;;;;;;9.62;71.00;94386.16;5092357;28;20032;-42
2021/09/07 00:11:21;;;;;;;962.10;897.85;;;;;;;9.58;69.30;94391.22;5092574;28;20424;-43
2021/09/07 00:13:47;;;;;;;956.15;892.13;;;;;;;9.46;69.05;94386.38;5092078;28;20042;-42
2021/09/07 00:16:12;;;;;;;929.42;865.95;;;;;;;9.39;69.64;94390.44;5092240;28;20020;-42
2021/09/07 00:18:38;;;;;;;977.67;911.00;;;;;;;9.32;70.30;94385.50;5092427;28;20034;-42
2021/09/07 00:21:03;;;;;;;970.50;903.53;;;;;;;9.25;69.79;94388.84;5091974;28;20413;-42
2021/09/07 00:23:29;;;;;;;978.83;909.20;;;;;;;9.08;70.90;94388.25;5092021;28;20089;-42
2021/09/07 00:26:14;;;;;;;991.85;923.65;;;;;;;9.18;71.08;94398.41;5088185;28;20561;-43
2021/09/07 00:28:40;;;;;;;971.63;904.80;;;;;;;9.25;70.43;94390.88;5091837;28;20024;-42
2021/09/07 00:31:05;;;;;;;947.40;882.78;;;;;;;8.95;71.15;94388.91;5091822;28;20077;-42
2021/09/07 00:33:31;;;;;;;971.15;904.55;;;;;;;9.16;70.95;94389.94;5091369;28;20081;-43
2021/09/07 00:35:56;;;;;;;973.58;906.75;;;;;;;9.05;71.34;94389.31;5091993;28;20036;-45
2021/09/07 00:38:22;;;;;;;983.33;916.00;;;;;;;9.25;71.16;94391.59;5092018;28;20040;-43
2021/09/07 00:40:47;;;;;;;970.15;902.90;;;;;;;9.28;71.12;94389.81;5091614;28;20027;-43
2021/09/07 00:43:12;;;;;;;987.63;916.17;;;;;;;9.24;70.75;94395.63;5091559;28;20064;-43
2021/09/07 00:45:38;;;;;;;982.63;913.70;;;;;;;9.09;70.32;94390.53;5091470;28;20028;-43
2021/09/07 00:48:04;;;;;;;1004.60;935.85;;;;;;;9.12;70.40;94394.22;5091499;28;20046;-42
2021/09/07 00:50:29;;;;;;;972.40;904.50;;;;;;;8.99;69.76;94388.59;5091484;28;20028;-43
2021/09/07 00:52:55;;;;;;;984.75;916.03;;;;;;;9.10;69.06;94386.50;5090118;28;20084;-43
2021/09/07 00:55:22;;;;;;;957.58;892.08;;;;;;;9.01;69.36;94395.09;5091357;28;20054;-43
2021/09/07 00:57:49;;;;;;;966.95;900.88;;;;;;;8.82;69.39;94371.50;5089984;28;20052;-43
2021/09/07 01:00:14;;;;;;;974.45;906.55;;;;;;;8.89;69.57;94385.44;5076848;28;20036;-42
2021/09/07 01:02:40;;;;;;;974.97;907.67;;;;;;;8.79;70.53;94383.56;5071299;28;20082;-43
2021/09/07 01:05:06;;;;;;;986.90;916.70;;;;;;;8.77;70.65;94373.03;5081164;28;20739;-44
2021/09/07 01:07:33;;;;;;;962.42;895.40;;;;;;;8.88;70.51;94377.72;5091361;28;20024;-43
2021/09/07 01:09:58;;;;;;;987.97;918.53;;;;;;;8.88;70.78;94385.97;5091357;28;20389;-42
2021/09/07 01:12:24;;;;;;;977.55;910.45;;;;;;;8.84;69.98;94382.72;5091427;28;20063;-43
2021/09/07 01:14:49;;;;;;;1026.90;949.72;;;;;;;8.66;70.89;94369.66;5087920;28;20025;-44
2021/09/07 01:17:17;;;;;;;1018.20;945.13;;;;;;;8.59;70.79;94387.47;5075602;28;20031;-44
2021/09/07 01:19:46;;;;;;;994.53;923.80;;;;;;;8.45;71.14;94376.81;5070583;28;20024;-43
2021/09/07 01:22:12;;;;;;;1000.55;930.28;;;;;;;8.43;71.23;94363.56;5070930;28;20024;-42
2021/09/07 01:24:37;;;;;;;998.53;930.08;;;;;;;8.62;70.43;94380.19;5070889;28;20051;-43
2021/09/07 01:27:05;;;;;;;1030.95;958.97;;;;;;;8.47;70.65;94375.03;5070837;28;20446;-43
2021/09/07 01:29:39;;;;;;;1029.05;953.63;;;;;;;8.56;70.76;94377.47;5070566;28;20032;-43
2021/09/07 01:32:08;;;;;;;1004.53;931.53;;;;;;;8.54;69.83;94369.00;5070763;28;20029;-43
2021/09/07 01:34:34;;;;;;;1015.13;943.00;;;;;;;8.53;69.68;94381.28;5070817;28;20142;-43
2021/09/07 01:36:59;;;;;;;1004.45;930.67;;;;;;;8.49;70.57;94372.53;5070723;28;20104;-45
2021/09/07 01:39:25;;;;;;;1029.80;953.58;;;;;;;8.24;71.19;94371.69;5070672;28;20020;-45
2021/09/07 01:41:51;;;;;;;1020.58;946.00;;;;;;;8.25;71.68;94367.72;5070488;28;20032;-44
2021/09/07 01:44:18;;;;;;;1024.72;947.88;;;;;;;8.32;70.93;94366.41;5070134;28;20056;-44
2021/09/07 01:46:44;;;;;;;1028.25;954.15;;;;;;;8.32;70.94;94369.16;5069880;28;20078;-44
2021/09/07 01:49:10;;;;;;;1007.60;934.30;;;;;;;8.29;71.47;94370.19;5071491;28;20032;-43
2021/09/07 01:51:40;;;;;;;1008.33;933.75;;;;;;;8.16;71.34;94346.00;5090396;28;20085;-45
2021/09/07 01:54:06;;;;;;;1005.17;933.15;;;;;;;8.25;70.93;94367.72;5078266;28;20558;-43
2021/09/07 01:56:33;;;;;;;1014.88;940.47;;;;;;;8.14;69.93;94367.75;5070010;28;20049;-43
2021/09/07 01:58:58;;;;;;;996.90;923.85;;;;;;;8.11;70.41;94373.53;5074206;28;20028;-43
2021/09/07 02:01:24;;;;;;;1031.72;956.00;;;;;;;8.06;70.54;94364.06;5090635;28;20451;-44
2021/09/07 02:03:49;;;;;;;988.78;916.15;;;;;;;8.08;70.41;94366.31;5082637;28;20035;-42
2021/09/07 02:06:15;;;;;;;1013.60;942.97;;;;;;;8.08;70.26;94371.81;5080092;28;20032;-43
2021/09/07 02:08:41;;;;;;;1007.88;934.47;;;;;;;8.10;70.80;94363.81;5078490;28;20024;-42
2021/09/07 02:11:06;;;;;;;1005.97;932.10;;;;;;;7.96;70.53;94354.66;5080579;28;20054;-43
2021/09/07 02:13:32;;;;;;;1007.80;937.58;;;;;;;8.04;70.09;94365.84;5079813;28;20023;-43
2021/09/07 02:15:57;;;;;;;998.60;927.00;;;;;;;7.97;70.45;94364.38;5079208;28;20089;-43
2021/09/07 02:18:22;;;;;;;1005.85;933.38;;;;;;;7.75;71.22;94367.28;5080899;28;20015;-43
2021/09/07 02:20:48;;;;;;;1029.55;953.83;;;;;;;7.79;71.29;94365.00;5078916;28;20555;-42
2021/09/07 02:23:13;;;;;;;1015.80;941.88;;;;;;;7.78;70.88;94354.50;5079864;28;20020;-42
2021/09/07 02:25:39;;;;;;;1026.10;950.58;;;;;;;7.80;71.99;94360.97;5080296;28;20017;-43
2021/09/07 02:28:04;;;;;;;1032.82;958.97;;;;;;;7.86;71.36;94366.47;5078638;28;20047;-43
2021/09/07 02:30:30;;;;;;;1002.83;932.47;;;;;;;7.82;71.49;94366.00;5079987;28;20524;-43
2021/09/07 02:32:56;;;;;;;1006.38;933.83;;;;;;;7.80;71.40;94362.97;5079925;28;20031;-42
2021/09/07 02:35:22;;;;;;;993.30;920.92;;;;;;;7.81;70.22;94364.47;5078638;28;20680;-44
2021/09/07 02:37:48;;;;;;;958.72;892.78;;;;;;;7.62;71.20;94356.81;5080138;28;20019;-42
2021/09/07 02:40:13;;;;;;;986.45;914.97;;;;;;;7.69;71.48;94354.81;5079501;28;20107;-42
2021/09/07 02:42:39;;;;;;;990.58;919.55;;;;;;;7.64;71.46;94362.56;5078875;28;20036;-42
2021/09/07 02:45:05;;;;;;;969.22;899.22;;;;;;;7.59;71.05;94365.34;5080436;28;20020;-41
2021/09/07 02:47:30;;;;;;;993.42;921.28;;;;;;;7.57;71.90;94370.59;5079428;28;20102;-41
2021/09/07 02:49:55;;;;;;;1009.75;934.63;;;;;;;7.59;72.04;94366.09;5078909;28;20040;-41
2021/09/07 02:52:21;;;;;;;989.25;916.15;;;;;;;7.56;71.41;94366.34;5080186;28;20024;-41
2021/09/07 02:54:46;;;;;;;990.67;917.63;;;;;;;7.57;71.80;94363.13;5077939;28;20048;-42
2021/09/07 02:57:12;;;;;;;1002.42;930.83;;;;;;;7.49;71.46;94366.91;5082063;28;20050;-41
2021/09/07 02:59:37;;;;;;;965.42;897.20;;;;;;;7.50;70.53;94363.63;5084979;28;20023;-41
2021/09/07 03:02:03;;;;;;;967.63;900.33;;;;;;;7.42;70.24;94359.94;5082219;28;20028;-42
2021/09/07 03:04:28;;;;;;;929.50;864.08;;;;;;;7.38;70.72;94355.97;5083857;28;20028;-42
2021/09/07 03:06:54;;;;;;;951.47;885.80;;;;;;;7.23;71.21;94345.28;5083264;28;20012;-42
2021/09/07 03:09:20;;;;;;;980.80;911.97;;;;;;;7.35;71.13;94363.22;5082305;28;20089;-42
2021/09/07 03:11:45;;;;;;;946.72;881.10;;;;;;;7.31;71.16;94359.97;5084207;28;20466;-42
2021/09/07 03:14:10;;;;;;;947.28;881.55;;;;;;;7.25;70.89;94358.50;5082656;28;20023;-42
2021/09/07 03:16:36;;;;;;;950.38;884.05;;;;;;;7.18;71.12;94357.03;5082747;28;20400;-42
2021/09/07 03:19:03;;;;;;;966.63;899.63;;;;;;;7.19;71.14;94358.50;5083731;28;20035;-41
2021/09/07 03:21:28;;;;;;;950.30;885.33;;;;;;;7.18;70.84;94359.78;5081481;28;20025;-42
2021/09/07 03:23:54;;;;;;;939.70;874.17;;;;;;;7.13;70.85;94357.78;5082788;28;20023;-42
2021/09/07 03:26:19;;;;;;;937.45;871.97;;;;;;;7.24;70.41;94357.00;5083426;28;20035;-42
2021/09/07 03:28:45;;;;;;;932.38;868.15;;;;;;;7.23;70.39;94361.00;5081653;28;20035;-42
2021/09/07 03:31:10;;;;;;;938.25;873.20;;;;;;;7.15;70.49;94355.28;5083256;28;20051;-42
2021/09/07 03:33:36;;;;;;;902.08;842.03;;;;;;;7.07;70.11;94353.56;5080359;28;20024;-41
2021/09/07 03:36:01;;;;;;;915.80;853.22;;;;;;;6.99;70.26;94353.34;5084512;28;20417;-41
2021/09/07 03:38:27;;;;;;;886.55;827.75;;;;;;;7.01;70.62;94361.06;5086500;28;20469;-42
2021/09/07 03:40:52;;;;;;;860.08;803.33;;;;;;;7.02;70.69;94357.09;5084963;28;20039;-42
2021/09/07 03:43:18;;;;;;;884.17;825.47;;;;;;;6.93;70.84;94358.09;5084775;28;20048;-42
2021/09/07 03:45:43;;;;;;;900.17;838.58;;;;;;;6.95;70.76;94354.84;5081041;28;20024;-42
2021/09/07 03:48:09;;;;;;;856.10;799.10;;;;;;;6.86;71.02;94348.38;5080378;28;20020;-42
2021/09/07 03:50:34;;;;;;;842.05;786.50;;;;;;;6.92;70.75;94364.09;5082269;28;20017;-42
2021/09/07 03:53:00;;;;;;;880.28;819.25;;;;;;;6.88;70.69;94362.38;5078528;28;20048;-43
2021/09/07 03:55:25;;;;;;;832.55;777.10;;;;;;;6.82;70.49;94377.34;5083551;28;20488;-43
2021/09/07 03:57:51;;;;;;;882.78;822.80;;;;;;;6.78;70.98;94363.88;5082294;28;20485;-42
2021/09/07 04:00:16;;;;;;;865.22;804.47;;;;;;;6.78;71.54;94363.09;5084110;28;20028;-44
2021/09/07 04:02:42;;;;;;;883.00;822.63;;;;;;;6.78;71.52;94368.59;5080805;28;20032;-44
2021/09/07 04:05:08;;;;;;;857.08;798.85;;;;;;;6.53;71.66;94339.47;5083046;28;20023;-44
2021/09/07 04:07:33;;;;;;;857.08;798.17;;;;;;;6.71;71.93;94364.38;5080981;28;20112;-43
2021/09/07 04:09:59;;;;;;;868.28;810.17;;;;;;;6.65;71.47;94365.63;5081190;28;20031;-43
2021/09/07 04:12:25;;;;;;;869.80;810.30;;;;;;;6.69;71.08;94369.63;5082642;28;20111;-45
2021/09/07 04:14:51;;;;;;;850.00;795.10;;;;;;;6.72;70.76;94370.63;5081455;28;20100;-45
2021/09/07 04:17:16;;;;;;;841.88;786.05;;;;;;;6.80;70.35;94368.84;5081353;28;20603;-44
2021/09/07 04:19:41;;;;;;;817.22;763.08;;;;;;;6.74;70.40;94368.88;5082741;28;20024;-43
2021/09/07 04:22:07;;;;;;;861.60;789.55;;;;;;;6.67;70.49;94372.13;5080846;28;20452;-43
2021/09/07 04:24:33;;;;;;;846.63;788.80;;;;;;;6.50;71.08;94371.38;5082047;28;20477;-43
2021/09/07 04:26:58;;;;;;;864.35;802.42;;;;;;;6.64;70.88;94386.09;5081843;28;20020;-43
2021/09/07 04:29:36;;;;;;;866.10;806.72;;;;;;;6.65;70.85;94385.59;5080291;28;20025;-43
2021/09/07 04:32:02;;;;;;;823.90;768.22;;;;;;;6.60;71.29;94396.59;5080552;28;20035;-44
2021/09/07 04:34:27;;;;;;;873.83;813.63;;;;;;;6.67;70.64;94391.31;5082562;28;20428;-44
2021/09/07 04:36:52;;;;;;;832.03;773.97;;;;;;;6.74;71.41;94401.78;5081462;28;20489;-43
2021/09/07 04:39:18;;;;;;;842.65;783.15;;;;;;;6.66;71.67;94391.81;5082706;28;20020;-45
2021/09/07 04:41:44;;;;;;;868.17;805.63;;;;;;;6.67;72.01;94396.81;5081846;28;20021;-43
2021/09/07 04:44:10;;;;;;;846.30;787.58;;;;;;;6.72;72.03;94392.56;5080140;28;20107;-45
2021/09/07 04:46:35;;;;;;;861.33;803.47;;;;;;;6.78;71.72;94396.03;5082161;28;20030;-42
2021/09/07 04:49:01;;;;;;;836.17;779.03;;;;;;;6.77;71.65;94405.53;5081278;28;20040;-45
2021/09/07 04:51:26;;;;;;;876.88;813.83;;;;;;;6.77;71.83;94400.06;5080135;28;20020;-45
2021/09/07 04:53:52;;;;;;;870.72;811.00;;;;;;;6.80;71.71;94402.53;5082407;28;20020;-45
2021/09/07 04:56:18;;;;;;;873.95;813.08;;;;;;;6.79;72.25;94392.81;5080810;28;20112;-45
2021/09/07 04:58:44;;;;;;;879.25;816.80;;;;;;;6.86;72.63;94400.53;5079478;28;20035;-45
2021/09/07 05:01:10;;;;;;;915.38;849.40;;;;;;;6.89;72.64;94399.53;5081639;28;20081;-44
2021/09/07 05:03:35;;;;;;;891.45;826.95;;;;;;;7.00;72.69;94404.25;5080049;28;20017;-44
2021/09/07 05:06:01;;;;;;;932.10;865.20;;;;;;;7.04;72.71;94402.00;5080217;28;20024;-45
2021/09/07 05:08:27;;;;;;;919.35;855.45;;;;;;;7.09;72.52;94400.47;5078905;28;20024;-43
2021/09/07 05:10:53;;;;;;;940.40;872.25;;;;;;;7.11;73.42;94401.47;5081263;28;20504;-44
2021/09/07 05:13:18;;;;;;;959.05;887.40;;;;;;;7.20;73.42;94405.94;5080341;28;20138;-45
2021/09/07 05:15:44;;;;;;;965.85;895.83;;;;;;;7.25;73.35;94403.19;5079965;28;20081;-43
2021/09/07 05:18:09;;;;;;;984.00;911.35;;;;;;;7.37;73.35;94404.66;5081136;28;20016;-42
2021/09/07 05:20:35;;;;;;;985.67;911.60;;;;;;;7.39;73.92;94410.38;5080645;28;20210;-41
2021/09/07 05:23:00;;;;;;;976.90;901.83;;;;;;;7.52;73.58;94413.34;5078683;28;20020;-42
2021/09/07 05:25:28;;;;;;;982.40;905.88;;;;;;;7.58;74.47;94414.06;5086498;28;20040;-42
2021/09/07 05:27:54;;;;;;;993.17;915.40;;;;;;;7.68;74.11;94405.53;5090212;28;20028;-42
2021/09/07 05:30:20;;;;;;;978.72;902.00;;;;;;;7.82;74.05;94410.69;5082889;28;20106;-43
2021/09/07 05:32:45;;;;;;;1021.45;940.22;;;;;;;7.92;74.25;94411.16;5070048;28;20115;-42
2021/09/07 05:35:11;;;;;;;983.65;904.85;;;;;;;8.03;74.26;94400.84;5079281;28;20032;-42
2021/09/07 05:37:40;;;;;;;976.80;904.30;;;;;;;8.07;74.34;94395.06;5089440;28;20020;-41
2021/09/07 05:40:08;;;;;;;1005.08;926.45;;;;;;;8.24;73.95;94401.22;5088473;28;20059;-41
2021/09/07 05:42:33;;;;;;;1000.25;923.33;;;;;;;8.27;74.26;94397.47;5088725;28;20020;-41
2021/09/07 05:44:59;;;;;;;993.55;916.38;;;;;;;8.43;75.06;94406.84;5089326;28;20035;-41
2021/09/07 05:47:24;;;;;;;979.28;902.15;;;;;;;8.48;75.22;94404.06;5089417;28;20024;-41
2021/09/07 05:49:50;;;;;;;990.25;914.63;;;;;;;8.59;76.49;94404.00;5089479;28;20035;-42
2021/09/07 05:52:15;;;;;;;996.60;921.75;;;;;;;8.74;77.14;94398.84;5090401;28;20024;-43
2021/09/07 05:54:41;;;;;;;986.58;910.70;;;;;;;8.84;76.64;94405.53;5072934;28;20056;-43
2021/09/07 05:57:07;;;;;;;1005.97;928.13;;;;;;;8.99;75.92;94399.63;5070181;28;20024;-42
2021/09/07 05:59:32;;;;;;;992.08;916.17;;;;;;;9.11;75.40;94404.53;5078370;28;20024;-42
2021/09/07 06:01:59;;;;;;;1006.92;928.67;;;;;;;9.19;75.63;94396.41;5089921;28;20055;-42
2021/09/07 06:04:24;;;;;;;1033.90;951.78;;;;;;;9.30;76.10;94399.06;5089906;28;20031;-43
2021/09/07 06:06:51;;;;;;;1027.85;944.05;;;;;;;9.45;76.05;94410.41;5090055;28;20103;-43
2021/09/07 06:09:16;;;;;;;1029.40;945.95;;;;;;;9.59;76.14;94403.00;5090124;28;20515;-43
2021/09/07 06:11:43;;;;;;;1037.78;952.38;;;;;;;9.72;75.57;94412.09;5090141;28;20032;-42
2021/09/07 06:14:08;;;;;;;1035.82;950.38;;;;;;;9.79;75.57;94396.97;5089975;28;20039;-44
2021/09/07 06:16:33;;;;;;;1083.72;992.80;;;;;;;10.06;75.97;94401.38;5090227;28;20036;-43
2021/09/07 06:18:59;;;;;;;1073.63;986.20;;;;;;;10.17;75.78;94395.75;5090203;28;20491;-46
2021/09/07 06:21:24;;;;;;;1086.20;994.35;;;;;;;10.31;75.76;94391.75;5089831;28;20020;-44
2021/09/07 06:23:51;;;;;;;1102.22;999.28;;;;;;;10.48;76.11;94395.03;5089956;28;20071;-45
2021/09/07 06:26:17;;;;;;;1074.13;982.70;;;;;;;10.52;77.01;94369.88;5090028;28;20031;-43
2021/09/07 06:28:44;;;;;;;1087.57;989.33;;;;;;;10.78;77.69;94405.13;5089959;28;20024;-45
2021/09/07 06:31:09;;;;;;;1139.82;999.90;;;;;;;11.15;78.50;94397.41;5083453;28;20555;-47
2021/09/07 06:33:35;;;;;;;1135.20;999.90;;;;;;;11.37;79.21;94396.28;5073913;28;20028;-45
2021/09/07 06:36:00;;;;;;;1147.07;999.90;;;;;;;11.60;79.34;94396.59;5074037;28;20086;-46
2021/09/07 06:38:26;;;;;;;1176.28;999.90;;;;;;;11.90;77.76;94397.03;5072613;28;20025;-44
2021/09/07 06:40:51;;;;;;;1135.88;999.90;;;;;;;12.11;77.23;94395.81;5074017;28;20017;-46
2021/09/07 06:43:17;;;;;;;1149.25;999.90;;;;;;;12.42;75.69;94390.63;5080196;28;20028;-45
2021/09/07 06:45:42;;;;;;;1140.13;999.90;;;;;;;12.60;75.39;94386.94;5091653;28;20031;-46
2021/09/07 06:48:07;;;;;;;1161.72;999.90;;;;;;;12.76;73.88;94392.06;5091575;28;20024;-44
2021/09/07 06:50:33;;;;;;;1144.10;999.90;;;;;;;13.02;73.89;94391.19;5090861;28;20031;-43
2021/09/07 06:52:59;;;;;;;1114.53;999.90;;;;;;;13.58;70.59;94405.13;5090906;28;20036;-42
2021/09/07 06:55:25;;;;;;;1168.22;999.90;;;;;;;14.07;68.43;94401.50;5090945;28;20055;-43
2021/09/07 06:57:51;;;;;;;1073.80;988.50;;;;;;;15.00;64.96;94400.66;5091183;28;20420;-45
2021/09/07 07:00:17;;;;;;;1025.88;944.17;;;;;;;15.77;62.07;94394.50;5083704;28;20110;-43
2021/09/07 07:02:42;;;;;;;1087.72;972.58;;;;;;;15.73;60.56;94399.72;5079720;28;20020;-43
2021/09/07 07:05:08;;;;;;;995.17;915.50;;;;;;;16.83;58.38;94398.94;5081603;28;20027;-44
2021/09/07 07:07:34;;;;;;;879.25;816.00;;;;;;;17.23;55.42;94397.53;5078423;28;20020;-43
2021/09/07 07:10:00;;;;;;;890.85;827.75;;;;;;;18.08;55.43;94399.03;5079252;28;20093;-43
2021/09/07 07:12:25;;;;;;;959.95;874.33;;;;;;;19.30;48.46;94405.25;5079100;28;20044;-43
2021/09/07 07:14:51;;;;;;;997.38;903.00;;;;;;;20.56;45.69;94390.88;5075906;28;20509;-44
2021/09/07 07:17:16;;;;;;;1079.85;953.47;;;;;;;21.36;44.56;94395.13;5070435;28;20017;-43
2021/09/07 07:19:42;;;;;;;1096.47;983.38;;;;;;;21.22;42.64;94391.34;5070012;28;20051;-44
2021/09/07 07:22:08;;;;;;;1083.07;976.15;;;;;;;21.55;42.12;94389.44;5070463;28;20536;-44
2021/09/07 07:24:33;;;;;;;1124.00;996.67;;;;;;;22.18;41.41;94392.31;5070476;28;20107;-45
2021/09/07 07:27:02;;;;;;;1171.40;999.90;;;;;;;22.24;41.34;94389.19;5078720;28;20024;-44
2021/09/07 07:29:28;;;;;;;;;;;;;;;21.07;41.40;94392.44;5082442;28;20019;-44
2021/09/07 07:31:53;;;;;;;1104.07;992.80;;;;;;;20.88;42.63;94393.19;5079751;28;19912;-44
2021/09/07 07:34:19;;;;;;;1151.00;999.90;;;;;;;22.17;42.12;94398.56;5080902;28;20101;-45
2021/09/07 07:36:44;;;;;;;1184.45;999.90;;;;;;;22.87;39.68;94391.91;5079248;28;20021;-45
2021/09/07 07:39:09;;;;;;;1112.07;999.17;;;;;;;20.93;40.81;94394.22;5080010;28;20016;-43
2021/09/07 07:41:35;;;;;;;1041.82;948.95;;;;;;;20.46;42.57;94400.63;5080780;28;20424;-44
2021/09/07 07:44:00;;;;;;;1098.68;990.17;;;;;;;21.16;42.36;94400.09;5079646;28;20024;-44
2021/09/07 07:46:26;;;;;;;1024.03;936.05;;;;;;;20.28;42.70;94400.06;5079615;28;20032;-44
2021/09/07 07:48:51;;;;;;;1062.82;961.75;;;;;;;19.46;44.71;94400.94;5079320;28;20035;-44
2021/09/07 07:51:18;;;;;;;1044.70;954.80;;;;;;;18.34;45.82;94403.19;5080778;28;20351;-43
2021/09/07 07:53:43;;;;;;;1081.03;980.25;;;;;;;18.11;49.22;94406.25;5078112;28;20032;-43
2021/09/07 07:56:08;;;;;;;1034.35;942.65;;;;;;;17.83;49.11;94399.09;5079852;28;20048;-45
2021/09/07 07:58:34;;;;;;;1055.38;957.75;;;;;;;17.80;49.99;94397.44;5080038;28;20082;-43
2021/09/07 08:01:21;;;;;;;1070.72;969.30;;;;;;;19.95;45.35;94398.97;5080831;28;20473;-45
2021/09/07 08:03:46;;;;;;;1055.63;961.75;;;;;;;21.81;40.85;94397.56;5081081;28;20407;-44
2021/09/07 08:06:13;;;;;;;1029.57;942.78;;;;;;;21.99;39.37;94386.84;5079503;28;20090;-43
2021/09/07 08:08:38;;;;;;;1024.13;939.58;;;;;;;22.09;38.39;94390.31;5078128;28;20494;-42
2021/09/07 08:11:04;;;;;;;1018.33;934.38;;;;;;;22.48;38.06;94383.03;5080281;28;20035;-42
2021/09/07 08:13:29;;;;;;;1012.55;929.85;;;;;;;22.03;38.10;94387.09;5076753;28;20028;-42
2021/09/07 08:15:54;;;;;;;1015.08;931.08;;;;;;;23.06;36.78;94386.09;5079187;28;20020;-45
2021/09/07 08:18:20;;;;;;;1049.25;962.88;;;;;;;23.01;36.79;94366.72;5079327;28;20028;-43
2021/09/07 08:20:48;;;;;;;991.28;913.83;;;;;;;22.15;37.23;94379.47;5078528;28;20043;-43
2021/09/07 08:23:13;;;;;;;1033.80;946.35;;;;;;;23.47;35.81;94382.97;5080298;28;20020;-43
2021/09/07 08:25:39;;;;;;;1048.68;963.17;;;;;;;25.53;33.88;94373.69;5080306;28;20031;-44
2021/09/07 08:28:04;;;;;;;1068.50;978.17;;;;;;;25.62;31.30;94367.09;5080042;28;20032;-45
2021/09/07 08:30:30;;;;;;;1095.95;997.97;;;;;;;25.41;30.39;94381.50;5078021;28;20062;-43
2021/09/07 08:32:56;;;;;;;1094.82;996.53;;;;;;;25.28;30.65;94380.09;5079582;28;20052;-43
2021/09/07 08:35:21;;;;;;;1081.50;986.72;;;;;;;25.91;31.47;94367.22;5079497;28;20028;-45
2021/09/07 08:37:47;;;;;;;1093.28;995.72;;;;;;;26.17;30.48;94377.06;5077690;28;20020;-44
2021/09/07 08:40:13;;;;;;;1116.25;999.90;;;;;;;27.12;29.61;94372.50;5079532;28;20103;-46
2021/09/07 08:42:39;;;;;;;1082.82;985.22;;;;;;;26.74;29.11;94377.09;5077137;28;20020;-46
2021/09/07 08:45:06;;;;;;;1111.88;999.90;;;;;;;27.18;27.45;94373.53;5069062;28;20025;-44
2021/09/07 08:47:32;;;;;;;1071.97;972.83;;;;;;;25.58;30.16;94369.72;5078395;28;20024;-42
2021/09/07 08:49:57;;;;;;;1131.85;999.90;;;;;;;25.66;31.80;94375.81;5079046;28;20405;-43
2021/09/07 08:52:24;;;;;;;1084.68;988.90;;;;;;;26.63;29.25;94356.00;5078783;28;20024;-44
2021/09/07 08:54:50;;;;;;;1079.63;986.97;;;;;;;28.11;26.96;94360.75;5077334;28;20029;-48
2021/09/07 08:57:16;;;;;;;1049.75;959.08;;;;;;;28.75;25.06;94365.59;5078973;28;20030;-45
2021/09/07 08:59:42;;;;;;;1050.63;966.95;;;;;;;28.90;25.69;94373.31;5081038;28;20466;-46
2021/09/07 09:02:17;;;;;;;994.45;918.50;;;;;;;30.20;23.60;94366.22;5077117;28;20086;-46
2021/09/07 09:04:45;;;;;;;997.20;923.08;;;;;;;29.91;23.00;94355.94;5086952;28;20027;-48
2021/09/07 09:07:37;;;;;;;948.40;878.63;;;;;;;28.36;23.82;94358.31;5088496;28;20169;-45
2021/09/07 09:10:04;;;;;;;993.97;920.17;;;;;;;28.61;26.55;94368.56;5068886;28;20108;-44
2021/09/07 09:12:35;;;;;;;978.15;904.78;;;;;;;29.93;25.58;94361.69;5070863;28;20023;-45
2021/09/07 09:15:01;;;;;;;913.08;849.30;;;;;;;31.30;22.14;94354.22;5089478;28;20051;-46
2021/09/07 09:17:31;;;;;;;918.28;854.53;;;;;;;32.69;20.43;94349.66;5090914;28;20500;-46
2021/09/07 09:19:59;;;;;;;857.33;798.63;;;;;;;33.80;20.11;94350.16;5081639;28;20036;-47
2021/09/07 09:22:46;;;;;;;930.55;865.92;;;;;;;33.81;19.57;94343.00;5068822;28;20413;-47
2021/09/07 09:25:23;;;;;;;853.13;795.78;;;;;;;34.84;17.99;94353.63;5068857;28;20036;-47
2021/09/07 09:27:50;;;;;;;815.53;760.35;;;;;;;35.72;17.65;94339.94;5068540;28;20474;-46
2021/09/07 09:30:16;;;;;;;825.55;772.13;;;;;;;34.97;17.23;94340.94;5068333;28;20101;-47
2021/09/07 09:32:48;;;;;;;824.72;770.80;;;;;;;34.55;17.03;94343.78;5067055;28;20665;-46
2021/09/07 09:35:14;;;;;;;853.08;796.58;;;;;;;35.04;17.30;94339.66;5069610;28;20465;-46
2021/09/07 09:38:19;;;;;;;782.78;731.95;;;;;;;36.05;16.21;94338.97;5070708;28;20024;-47
2021/09/07 09:40:51;;;;;;;770.72;720.28;;;;;;;35.85;15.81;94337.97;5048006;28;20025;-45
2021/09/07 09:43:33;;;;;;;779.90;728.90;;;;;;;36.17;16.67;94329.78;5048073;28;20541;-46
2021/09/07 09:46:22;;;;;;;789.13;737.78;;;;;;;36.90;15.63;94342.81;5061917;28;20039;-47
2021/09/07 09:48:48;;;;;;;765.63;715.92;;;;;;;36.57;16.08;94338.13;5070539;28;20421;-46
2021/09/07 09:51:18;;;;;;;745.42;698.13;;;;;;;36.93;14.12;94336.34;5070554;28;20020;-47
2021/09/07 09:53:45;;;;;;;742.42;696.58;;;;;;;37.12;14.31;94340.81;5078765;28;20020;-46
2021/09/07 09:56:12;;;;;;;708.40;663.50;;;;;;;36.22;14.48;94349.25;5089801;28;20048;-46
2021/09/07 09:58:38;;;;;;;686.00;642.33;;;;;;;36.57;14.76;94341.00;5089721;28;20016;-48
2021/09/07 10:01:05;;;;;;;694.78;651.42;;;;;;;36.26;15.08;94342.81;5085830;28;20505;-46
2021/09/07 10:03:31;;;;;;;712.15;667.83;;;;;;;35.47;16.07;94347.50;5070404;28;20086;-48
2021/09/07 10:05:57;;;;;;;730.00;684.45;;;;;;;33.55;16.71;94322.41;5069245;28;20032;-47
2021/09/07 10:08:22;;;;;;;687.67;645.15;;;;;;;30.44;19.62;94346.41;5069186;28;20020;-45
2021/09/07 10:10:56;;;;;;;656.75;616.28;;;;;;;29.06;21.17;94325.63;5085731;28;20103;-46
2021/09/07 10:13:25;;;;;;;541.05;508.25;;;;;;;27.44;23.82;94345.69;5069252;28;20107;-45
2021/09/07 10:15:57;;;;;;;569.35;535.05;;;;;;;27.57;24.66;94339.19;5074434;28;20525;-45
2021/09/07 10:23:59;;;;;;;433.02;409.13;;;;;;;30.42;22.88;94324.28;5090219;28;20024;-46
2021/09/07 10:26:37;;;;;;;;;;;;;;;31.68;20.86;94321.16;5091076;28;20036;-47
2021/09/07 10:29:23;;;;;;;477.63;450.47;;;;;;;32.21;20.60;94317.63;5090003;28;19912;-46
2021/09/07 10:31:53;;;;;;;460.42;434.00;;;;;;;33.55;18.04;94323.13;5082595;28;20039;-47
2021/09/07 10:34:23;;;;;;;573.78;539.17;;;;;;;32.98;18.24;94320.34;5088857;28;20412;-47
2021/09/07 10:37:07;;;;;;;667.53;623.20;;;;;;;33.37;19.39;94333.44;5090016;28;20028;-47
2021/09/07 10:39:40;;;;;;;639.55;600.13;;;;;;;33.31;18.05;94319.69;5090023;28;20024;-47
2021/09/07 10:42:07;;;;;;;613.08;575.20;;;;;;;30.62;20.00;94312.81;5090251;28;20024;-44
2021/09/07 10:44:35;;;;;;;606.28;566.60;;;;;;;28.52;23.28;94316.34;5090289;28;20024;-45
2021/09/07 10:47:06;;;;;;;536.87;504.60;;;;;;;28.58;23.00;94318.00;5088943;28;20020;-45
2021/09/07 10:49:33;;;;;;;495.15;466.85;;;;;;;29.85;22.59;94321.53;5089590;28;20081;-48
2021/09/07 10:52:04;;;;;;;351.52;333.38;;;;;;;31.07;20.17;94315.00;5090086;28;20031;-48
2021/09/07 10:54:30;;;;;;;466.38;440.83;;;;;;;32.09;19.25;94309.47;5089161;28;20051;-48
2021/09/07 10:56:58;;;;;;;492.85;463.98;;;;;;;32.04;19.05;94312.88;5089847;28;20105;-47
2021/09/07 10:59:50;;;;;;;512.58;482.02;;;;;;;32.36;19.34;94316.59;5082642;28;20025;-47
2021/09/07 11:02:34;;;;;;;462.10;436.75;;;;;;;33.02;17.33;94323.31;5069652;28;20033;-48
2021/09/07 11:05:04;;;;;;;499.15;470.98;;;;;;;33.26;17.12;94321.03;5069796;28;20036;-47
2021/09/07 11:07:32;;;;;;;516.33;487.30;;;;;;;34.16;16.60;94318.66;5069752;28;20031;-48
2021/09/07 11:09:58;;;;;;;558.10;525.00;;;;;;;34.26;16.35;94318.88;5069694;28;20089;-46